Time;durP1;ratioP1;P1;durP2;ratioP2;P2;SDS_P1;SDS_P2;PMS_P1;PMS_P2;Temp;Humidity;BMP_temperature;BMP_pressure;BME280_temperature;BME280_humidity;BME280_pressure;Samples;Min_cycle;Max_cycle;Signal;HPM_P1;HPM_P2
2021/07/31 00:00:38;;;;;;;5.23;2.13;;;;;;;;;;5072710;28;20493;-69
2021/07/31 00:03:05;;;;;;;2.70;2.40;;;;;;;;;;5073100;28;20447;-69
2021/07/31 00:05:33;;;;;;;3.03;2.50;;;;;;;;;;5073627;28;20479;-69
2021/07/31 00:08:00;;;;;;;4.50;2.40;;;;;;;;;;5072910;28;20470;-69
2021/07/31 00:10:27;;;;;;;3.63;2.40;;;;;;;;;;5073114;28;20448;-69
2021/07/31 00:12:55;;;;;;;3.97;2.80;;;;;;;;;;5073532;28;20448;-69
2021/07/31 00:15:23;;;;;;;5.60;2.33;;;;;;;;;;5075145;28;20517;-69
2021/07/31 00:17:50;;;;;;;4.27;2.40;;;;;;;;;;5076528;28;20454;-69
2021/07/31 00:20:17;;;;;;;10.10;2.20;;;;;;;;;;5076755;28;20982;-70
2021/07/31 00:22:44;;;;;;;6.90;2.27;;;;;;;;;;5076561;28;20445;-68
2021/07/31 00:25:12;;;;;;;7.37;3.13;;;;;;;;;;5076523;28;20477;-68
2021/07/31 00:27:39;;;;;;;6.47;3.03;;;;;;;;;;5076466;28;20806;-68
2021/07/31 00:30:08;;;;;;;4.40;2.20;;;;;;;;;;5076383;28;20450;-68
2021/07/31 00:32:35;;;;;;;5.13;2.23;;;;;;;;;;5076092;28;20443;-69
2021/07/31 00:35:02;;;;;;;4.60;2.33;;;;;;;;;;5075986;28;20450;-68
2021/07/31 00:37:30;;;;;;;10.77;2.50;;;;;;;;;;5076037;28;20443;-68
2021/07/31 00:39:57;;;;;;;3.17;1.90;;;;;;;;;;5076396;28;20510;-69
2021/07/31 00:42:24;;;;;;;11.00;2.20;;;;;;;;;;5075892;28;20945;-68
2021/07/31 00:44:51;;;;;;;7.73;2.40;;;;;;;;;;5075770;28;20993;-69
2021/07/31 00:47:20;;;;;;;8.83;2.70;;;;;;;;;;5076419;28;20491;-69
2021/07/31 00:49:47;;;;;;;5.80;2.40;;;;;;;;;;5076063;28;20446;-68
2021/07/31 00:52:14;;;;;;;3.67;2.50;;;;;;;;;;5076075;28;20525;-69
2021/07/31 00:54:41;;;;;;;2.73;1.93;;;;;;;;;;5076193;28;20446;-68
2021/07/31 00:57:08;;;;;;;3.40;2.03;;;;;;;;;;5075662;28;20438;-68
2021/07/31 00:59:36;;;;;;;5.00;2.33;;;;;;;;;;5075887;28;20442;-69
2021/07/31 01:02:03;;;;;;;5.53;2.20;;;;;;;;;;5075816;28;20442;-68
2021/07/31 01:04:31;;;;;;;4.93;2.43;;;;;;;;;;5075540;28;20982;-68
2021/07/31 01:06:59;;;;;;;4.90;2.13;;;;;;;;;;5075765;28;20437;-69
2021/07/31 01:09:26;;;;;;;3.77;2.93;;;;;;;;;;5075746;28;20444;-68
2021/07/31 01:11:53;;;;;;;3.73;2.20;;;;;;;;;;5075360;28;20460;-67
2021/07/31 01:14:20;;;;;;;6.90;2.27;;;;;;;;;;5075307;28;20448;-68
2021/07/31 01:16:48;;;;;;;4.93;2.60;;;;;;;;;;5075303;28;20450;-68
2021/07/31 01:19:15;;;;;;;2.80;2.23;;;;;;;;;;5075349;28;20445;-68
2021/07/31 01:21:44;;;;;;;2.90;2.00;;;;;;;;;;5075709;28;20444;-68
2021/07/31 01:24:12;;;;;;;5.37;2.20;;;;;;;;;;5075396;28;20441;-68
2021/07/31 01:26:41;;;;;;;4.67;2.80;;;;;;;;;;5074799;28;20593;-68
2021/07/31 01:29:09;;;;;;;2.43;2.03;;;;;;;;;;5075413;28;20795;-68
2021/07/31 01:31:36;;;;;;;3.20;2.10;;;;;;;;;;5075931;28;20789;-68
2021/07/31 01:34:04;;;;;;;6.30;2.43;;;;;;;;;;5075280;28;20441;-68
2021/07/31 01:36:31;;;;;;;2.23;2.07;;;;;;;;;;5075178;28;20443;-69
2021/07/31 01:39:00;;;;;;;2.03;1.73;;;;;;;;;;5075268;28;20461;-69
2021/07/31 01:41:27;;;;;;;6.07;2.20;;;;;;;;;;5074818;28;20961;-69
2021/07/31 01:43:55;;;;;;;7.17;2.70;;;;;;;;;;5075417;28;20438;-69
2021/07/31 01:46:23;;;;;;;2.13;1.93;;;;;;;;;;5074916;28;20515;-65
2021/07/31 01:48:50;;;;;;;4.27;2.30;;;;;;;;;;5075251;28;20643;-68
2021/07/31 01:51:17;;;;;;;6.73;2.30;;;;;;;;;;5074889;28;20443;-67
2021/07/31 01:53:45;;;;;;;3.10;1.97;;;;;;;;;;5074570;28;20447;-67
2021/07/31 01:56:13;;;;;;;3.00;2.10;;;;;;;;;;5074759;28;20463;-67
2021/07/31 01:58:41;;;;;;;4.20;2.30;;;;;;;;;;5075124;28;20442;-67
2021/07/31 02:01:08;;;;;;;3.20;2.50;;;;;;;;;;5074685;28;20441;-67
2021/07/31 02:03:35;;;;;;;3.97;2.30;;;;;;;;;;5074317;28;20444;-67
2021/07/31 02:06:02;;;;;;;9.40;3.63;;;;;;;;;;5074544;28;20498;-67
2021/07/31 02:08:29;;;;;;;4.30;2.60;;;;;;;;;;5074511;28;20445;-67
2021/07/31 02:10:57;;;;;;;6.57;2.60;;;;;;;;;;5074757;28;20930;-67
2021/07/31 02:13:25;;;;;;;6.17;2.17;;;;;;;;;;5074558;28;20463;-68
2021/07/31 02:15:52;;;;;;;4.13;2.10;;;;;;;;;;5074100;28;20445;-67
2021/07/31 02:18:20;;;;;;;6.83;2.37;;;;;;;;;;5074474;28;20454;-67
2021/07/31 02:20:47;;;;;;;3.67;2.33;;;;;;;;;;5074299;28;20531;-68
2021/07/31 02:23:14;;;;;;;8.27;2.33;;;;;;;;;;5074292;28;20443;-67
2021/07/31 02:25:41;;;;;;;4.20;2.37;;;;;;;;;;5074860;28;20479;-67
2021/07/31 02:28:08;;;;;;;2.37;2.17;;;;;;;;;;5074998;28;20441;-66
2021/07/31 02:30:37;;;;;;;4.20;2.20;;;;;;;;;;5074142;28;20441;-68
2021/07/31 02:33:04;;;;;;;6.17;2.40;;;;;;;;;;5074393;28;20532;-68
2021/07/31 02:35:34;;;;;;;3.13;2.50;;;;;;;;;;5074048;28;20453;-68
2021/07/31 02:38:02;;;;;;;4.20;2.50;;;;;;;;;;5072786;28;21006;-68
2021/07/31 02:40:29;;;;;;;6.53;2.57;;;;;;;;;;5074053;28;20464;-68
2021/07/31 02:42:56;;;;;;;6.20;2.50;;;;;;;;;;5073967;28;20541;-68
2021/07/31 02:45:24;;;;;;;3.63;2.37;;;;;;;;;;5074239;28;20487;-68
2021/07/31 02:47:53;;;;;;;3.23;2.03;;;;;;;;;;5073448;28;20441;-69
2021/07/31 02:50:20;;;;;;;3.20;2.70;;;;;;;;;;5073894;28;20441;-68
2021/07/31 02:52:47;;;;;;;3.30;2.80;;;;;;;;;;5073536;28;20437;-68
2021/07/31 02:55:14;;;;;;;6.20;2.30;;;;;;;;;;5073457;28;20451;-68
2021/07/31 02:57:41;;;;;;;3.43;2.20;;;;;;;;;;5073924;28;20449;-68
2021/07/31 03:00:09;;;;;;;3.50;2.57;;;;;;;;;;5074191;28;20942;-68
2021/07/31 03:02:36;;;;;;;8.80;2.80;;;;;;;;;;5073444;28;20447;-68
2021/07/31 03:05:05;;;;;;;4.30;2.50;;;;;;;;;;5073343;28;20447;-69
2021/07/31 03:07:32;;;;;;;3.00;2.67;;;;;;;;;;5073670;28;20530;-68
2021/07/31 03:10:00;;;;;;;3.70;2.40;;;;;;;;;;5074319;28;20452;-68
2021/07/31 03:12:27;;;;;;;2.60;2.10;;;;;;;;;;5073325;28;20483;-68
2021/07/31 03:14:54;;;;;;;7.90;2.87;;;;;;;;;;5073573;28;20526;-67
2021/07/31 03:17:22;;;;;;;7.10;3.07;;;;;;;;;;5073298;28;20996;-68
2021/07/31 03:19:49;;;;;;;2.87;2.30;;;;;;;;;;5073242;28;20442;-68
2021/07/31 03:22:18;;;;;;;6.60;2.50;;;;;;;;;;5073564;28;20828;-68
2021/07/31 03:24:45;;;;;;;4.97;2.87;;;;;;;;;;5073212;28;20532;-68
2021/07/31 03:27:12;;;;;;;3.90;2.70;;;;;;;;;;5073404;28;20474;-69
2021/07/31 03:29:40;;;;;;;6.13;2.80;;;;;;;;;;5073460;28;20449;-67
2021/07/31 03:32:07;;;;;;;5.27;3.20;;;;;;;;;;5073114;28;20451;-67
2021/07/31 03:34:35;;;;;;;3.30;2.60;;;;;;;;;;5073303;28;20441;-68
2021/07/31 03:37:02;;;;;;;2.83;2.47;;;;;;;;;;5073406;28;20453;-67
2021/07/31 03:39:31;;;;;;;4.13;2.30;;;;;;;;;;5072938;28;20539;-68
2021/07/31 03:41:58;;;;;;;5.80;3.47;;;;;;;;;;5073494;28;20437;-65
2021/07/31 03:44:25;;;;;;;4.03;2.77;;;;;;;;;;5073012;28;20600;-68
2021/07/31 03:46:53;;;;;;;5.90;3.00;;;;;;;;;;5073180;28;20477;-68
2021/07/31 03:49:21;;;;;;;5.13;2.40;;;;;;;;;;5074052;28;20935;-68
2021/07/31 03:51:48;;;;;;;7.50;2.83;;;;;;;;;;5076912;28;20539;-67
2021/07/31 03:54:15;;;;;;;10.07;2.67;;;;;;;;;;5077856;28;20448;-68
2021/07/31 03:56:44;;;;;;;5.40;3.77;;;;;;;;;;5076780;28;20918;-68
2021/07/31 03:59:11;;;;;;;4.13;2.70;;;;;;;;;;5077196;28;20442;-68
2021/07/31 04:01:38;;;;;;;4.80;2.70;;;;;;;;;;5076993;28;20446;-66
2021/07/31 04:04:05;;;;;;;5.37;3.30;;;;;;;;;;5076622;28;20444;-68
2021/07/31 04:06:32;;;;;;;6.57;3.50;;;;;;;;;;5076484;28;20472;-68
2021/07/31 04:09:00;;;;;;;4.60;2.93;;;;;;;;;;5076544;28;20452;-67
2021/07/31 04:11:27;;;;;;;4.50;3.47;;;;;;;;;;5076501;28;20444;-69
2021/07/31 04:13:55;;;;;;;5.63;3.30;;;;;;;;;;5076772;28;20524;-74
2021/07/31 04:16:23;;;;;;;6.50;3.00;;;;;;;;;;5076381;28;20451;-74
2021/07/31 04:18:50;;;;;;;5.27;2.73;;;;;;;;;;5076729;28;20454;-69
2021/07/31 04:21:17;;;;;;;3.03;2.17;;;;;;;;;;5076822;28;20447;-71
2021/07/31 04:23:45;;;;;;;3.27;2.40;;;;;;;;;;5076263;28;20532;-68
2021/07/31 04:26:13;;;;;;;4.27;3.00;;;;;;;;;;5076428;28;20482;-72
2021/07/31 04:28:40;;;;;;;13.00;3.00;;;;;;;;;;5076439;28;20444;-71
2021/07/31 04:31:12;;;;;;;5.33;2.67;;;;;;;;;;5076517;28;20924;-72
2021/07/31 04:33:40;;;;;;;8.20;2.87;;;;;;;;;;5070582;28;20440;-71
2021/07/31 04:36:08;;;;;;;5.50;2.70;;;;;;;;;;5069844;28;20456;-72
2021/07/31 04:38:35;;;;;;;4.80;2.67;;;;;;;;;;5076017;28;20818;-71
2021/07/31 04:41:03;;;;;;;7.40;2.60;;;;;;;;;;5075894;28;20954;-72
2021/07/31 04:43:31;;;;;;;5.40;3.07;;;;;;;;;;5076689;28;20443;-71
2021/07/31 04:45:58;;;;;;;3.40;2.90;;;;;;;;;;5076125;28;20480;-72
2021/07/31 04:48:27;;;;;;;5.93;2.70;;;;;;;;;;5076418;28;20456;-73
2021/07/31 04:51:00;;;;;;;4.90;2.63;;;;;;;;;;5075603;28;20438;-73
2021/07/31 04:53:28;;;;;;;3.33;2.87;;;;;;;;;;5076042;28;20442;-72
2021/07/31 04:55:56;;;;;;;5.33;2.97;;;;;;;;;;5076257;28;20456;-72
2021/07/31 04:58:23;;;;;;;4.70;3.00;;;;;;;;;;5075636;28;20444;-72
2021/07/31 05:00:51;;;;;;;6.00;3.20;;;;;;;;;;5074878;28;20956;-71
2021/07/31 05:03:18;;;;;;;8.37;3.40;;;;;;;;;;5075820;28;20449;-73
2021/07/31 05:05:47;;;;;;;6.13;3.27;;;;;;;;;;5076451;28;20441;-72
2021/07/31 05:08:15;;;;;;;5.03;3.00;;;;;;;;;;5074523;28;20444;-73
2021/07/31 05:10:42;;;;;;;7.73;3.00;;;;;;;;;;5074695;28;20470;-71
2021/07/31 05:13:10;;;;;;;5.27;3.47;;;;;;;;;;5075357;28;20444;-72
2021/07/31 05:15:38;;;;;;;4.97;2.50;;;;;;;;;;5075700;28;20543;-73
2021/07/31 05:18:05;;;;;;;3.93;2.83;;;;;;;;;;5075230;28;20927;-73
2021/07/31 05:20:32;;;;;;;3.43;2.90;;;;;;;;;;5075753;28;20523;-71
2021/07/31 05:23:02;;;;;;;4.50;3.30;;;;;;;;;;5075098;28;20443;-72
2021/07/31 05:25:29;;;;;;;6.47;3.10;;;;;;;;;;5075461;28;20451;-71
2021/07/31 05:27:56;;;;;;;8.33;3.10;;;;;;;;;;5075025;28;20565;-71
2021/07/31 05:30:24;;;;;;;4.17;2.67;;;;;;;;;;5075302;28;20436;-72
2021/07/31 05:32:51;;;;;;;6.03;3.30;;;;;;;;;;5075155;28;20453;-73
2021/07/31 05:35:18;;;;;;;4.23;3.00;;;;;;;;;;5075209;28;20532;-73
2021/07/31 05:37:45;;;;;;;6.97;3.17;;;;;;;;;;5074664;28;20484;-72
2021/07/31 05:40:14;;;;;;;4.57;2.93;;;;;;;;;;5075466;28;20441;-72
2021/07/31 05:42:42;;;;;;;4.73;3.17;;;;;;;;;;5074016;28;20525;-72
2021/07/31 05:45:09;;;;;;;4.67;2.97;;;;;;;;;;5074738;28;20444;-72
2021/07/31 05:47:37;;;;;;;2.70;2.37;;;;;;;;;;5074983;28;20495;-73
2021/07/31 05:50:05;;;;;;;4.13;3.07;;;;;;;;;;5075461;28;20448;-73
2021/07/31 05:52:33;;;;;;;7.03;3.60;;;;;;;;;;5074940;28;20798;-72
2021/07/31 05:55:00;;;;;;;8.13;3.20;;;;;;;;;;5074817;28;20483;-71
2021/07/31 05:57:29;;;;;;;6.80;3.00;;;;;;;;;;5074057;28;20451;-72
2021/07/31 05:59:56;;;;;;;9.13;3.50;;;;;;;;;;5074362;28;20445;-73
2021/07/31 06:02:23;;;;;;;4.70;2.90;;;;;;;;;;5074514;28;20490;-71
2021/07/31 06:04:51;;;;;;;3.57;2.37;;;;;;;;;;5074847;28;20439;-70
2021/07/31 06:07:18;;;;;;;3.27;2.97;;;;;;;;;;5074441;28;20473;-72
2021/07/31 06:09:50;;;;;;;3.80;2.77;;;;;;;;;;5075304;28;20444;-70
2021/07/31 06:12:17;;;;;;;6.43;3.37;;;;;;;;;;5074185;28;20806;-72
2021/07/31 06:14:46;;;;;;;3.57;2.67;;;;;;;;;;5073455;28;20443;-71
2021/07/31 06:17:13;;;;;;;4.30;3.23;;;;;;;;;;5073520;28;20477;-69
2021/07/31 06:19:40;;;;;;;4.87;3.00;;;;;;;;;;5073930;28;20949;-71
2021/07/31 06:22:07;;;;;;;3.73;3.10;;;;;;;;;;5074319;28;20525;-71
2021/07/31 06:24:34;;;;;;;3.47;3.17;;;;;;;;;;5074249;28;20441;-70
2021/07/31 06:27:02;;;;;;;9.60;3.67;;;;;;;;;;5074116;28;20496;-70
2021/07/31 06:29:29;;;;;;;6.00;3.63;;;;;;;;;;5074180;28;20442;-70
2021/07/31 06:31:57;;;;;;;7.13;3.30;;;;;;;;;;5073958;28;20437;-70
2021/07/31 06:34:26;;;;;;;9.63;2.80;;;;;;;;;;5073641;28;20448;-71
2021/07/31 06:36:53;;;;;;;7.00;3.00;;;;;;;;;;5073628;28;20453;-71
2021/07/31 06:39:20;;;;;;;6.23;2.90;;;;;;;;;;5040928;28;20474;-70
2021/07/31 06:41:47;;;;;;;4.60;3.07;;;;;;;;;;5054347;28;20499;-71
2021/07/31 06:44:15;;;;;;;3.60;3.10;;;;;;;;;;5053452;28;20446;-70
2021/07/31 06:46:57;;;;;;;5.03;3.27;;;;;;;;;;5053549;28;20567;-71
2021/07/31 06:49:25;;;;;;;3.83;3.53;;;;;;;;;;5052590;28;20454;-70
2021/07/31 06:51:53;;;;;;;5.40;3.40;;;;;;;;;;5053813;28;20442;-71
2021/07/31 06:54:20;;;;;;;4.73;3.63;;;;;;;;;;5053501;28;20481;-71
2021/07/31 06:56:47;;;;;;;5.40;3.70;;;;;;;;;;5053796;28;20535;-72
2021/07/31 06:59:14;;;;;;;5.90;3.90;;;;;;;;;;5053282;28;20441;-71
2021/07/31 07:01:42;;;;;;;3.27;2.97;;;;;;;;;;5053755;28;20448;-70
2021/07/31 07:04:09;;;;;;;6.23;3.80;;;;;;;;;;5053164;28;20965;-71
2021/07/31 07:06:40;;;;;;;3.53;3.20;;;;;;;;;;5053767;28;20514;-70
2021/07/31 07:09:08;;;;;;;6.57;3.97;;;;;;;;;;5054267;28;20430;-68
2021/07/31 07:11:35;;;;;;;5.50;3.20;;;;;;;;;;5053177;28;20445;-69
2021/07/31 07:14:02;;;;;;;3.83;3.07;;;;;;;;;;5053030;28;20453;-69
2021/07/31 07:16:29;;;;;;;4.40;4.00;;;;;;;;;;5053086;28;20442;-72
2021/07/31 07:18:56;;;;;;;6.10;3.00;;;;;;;;;;5053739;28;20803;-70
2021/07/31 07:21:23;;;;;;;4.33;3.43;;;;;;;;;;5040401;28;20444;-70
2021/07/31 07:23:52;;;;;;;3.90;3.43;;;;;;;;;;5028109;28;20452;-70
2021/07/31 07:26:19;;;;;;;4.93;3.70;;;;;;;;;;5032541;28;20942;-73
2021/07/31 07:28:46;;;;;;;3.43;3.07;;;;;;;;;;5039956;28;20440;-71
2021/07/31 07:31:14;;;;;;;4.00;3.17;;;;;;;;;;5040346;28;20447;-72
2021/07/31 07:33:42;;;;;;;5.37;3.70;;;;;;;;;;5039973;28;20446;-69
2021/07/31 07:36:13;;;;;;;4.17;3.63;;;;;;;;;;5039534;28;20456;-71
2021/07/31 07:38:40;;;;;;;4.80;3.37;;;;;;;;;;5050783;28;20475;-70
2021/07/31 07:41:09;;;;;;;4.10;3.77;;;;;;;;;;5059852;28;20524;-70
2021/07/31 07:43:36;;;;;;;6.70;3.10;;;;;;;;;;5059139;28;20444;-70
2021/07/31 07:46:07;;;;;;;6.10;3.60;;;;;;;;;;5059823;28;20441;-71
2021/07/31 07:48:34;;;;;;;4.53;3.60;;;;;;;;;;5059350;28;20494;-71
2021/07/31 07:51:01;;;;;;;6.90;3.10;;;;;;;;;;5059353;28;20443;-69
2021/07/31 07:53:29;;;;;;;5.97;4.10;;;;;;;;;;5059343;28;20449;-70
2021/07/31 07:55:56;;;;;;;5.50;3.57;;;;;;;;;;5059478;28;20442;-70
2021/07/31 07:58:24;;;;;;;4.00;3.67;;;;;;;;;;5059584;28;20452;-70
2021/07/31 08:00:52;;;;;;;4.73;3.40;;;;;;;;;;5060594;28;20538;-70
2021/07/31 08:03:19;;;;;;;4.50;2.90;;;;;;;;;;5059682;28;20470;-70
2021/07/31 08:05:46;;;;;;;6.10;3.20;;;;;;;;;;5059581;28;20443;-70
2021/07/31 08:08:13;;;;;;;3.83;3.43;;;;;;;;;;5059607;28;20483;-71
2021/07/31 08:10:40;;;;;;;7.00;4.00;;;;;;;;;;5059374;28;20482;-71
2021/07/31 08:13:08;;;;;;;4.70;3.40;;;;;;;;;;5059267;28;20449;-70
2021/07/31 08:15:36;;;;;;;3.30;3.00;;;;;;;;;;5059597;28;20441;-70
2021/07/31 08:18:03;;;;;;;4.40;4.00;;;;;;;;;;5059260;28;20938;-71
2021/07/31 08:20:31;;;;;;;4.73;3.63;;;;;;;;;;5059968;28;20594;-71
2021/07/31 08:22:58;;;;;;;4.60;3.47;;;;;;;;;;5059175;28;20450;-70
2021/07/31 08:25:25;;;;;;;3.70;3.30;;;;;;;;;;5059319;28;20522;-71
2021/07/31 08:27:52;;;;;;;8.13;4.10;;;;;;;;;;5059638;28;20572;-70
2021/07/31 08:30:20;;;;;;;5.00;3.60;;;;;;;;;;5059300;28;20961;-70
2021/07/31 08:32:48;;;;;;;4.63;3.17;;;;;;;;;;5059252;28;20450;-69
2021/07/31 08:35:15;;;;;;;6.30;3.67;;;;;;;;;;5059007;28;20455;-73
2021/07/31 08:37:43;;;;;;;2.90;2.57;;;;;;;;;;5056670;28;20479;-70
2021/07/31 08:40:11;;;;;;;4.77;3.53;;;;;;;;;;5056754;28;20482;-70
2021/07/31 08:42:38;;;;;;;6.00;3.00;;;;;;;;;;5056449;28;20845;-70
2021/07/31 08:45:06;;;;;;;6.43;3.43;;;;;;;;;;5055388;28;20526;-70
2021/07/31 08:47:33;;;;;;;5.53;3.23;;;;;;;;;;5056514;28;20497;-70
2021/07/31 08:50:03;;;;;;;2.70;2.37;;;;;;;;;;5056891;28;20525;-70
2021/07/31 08:52:32;;;;;;;5.07;3.47;;;;;;;;;;5056169;28;20447;-75
2021/07/31 08:55:00;;;;;;;4.60;3.23;;;;;;;;;;5056567;28;20437;-74
2021/07/31 08:57:27;;;;;;;3.60;3.30;;;;;;;;;;5055938;28;20541;-66
2021/07/31 08:59:54;;;;;;;6.03;4.10;;;;;;;;;;5056085;28;20454;-67
2021/07/31 09:02:22;;;;;;;3.93;3.53;;;;;;;;;;5056098;28;20533;-67
2021/07/31 09:04:51;;;;;;;6.63;4.13;;;;;;;;;;5055040;28;20932;-67
2021/07/31 09:07:19;;;;;;;4.83;4.43;;;;;;;;;;5056408;28;20814;-67
2021/07/31 09:09:47;;;;;;;4.50;4.10;;;;;;;;;;5055705;28;20449;-68
2021/07/31 09:12:15;;;;;;;5.77;4.07;;;;;;;;;;5055269;28;20467;-67
2021/07/31 09:14:46;;;;;;;5.20;3.83;;;;;;;;;;5055619;28;20445;-67
2021/07/31 09:17:24;;;;;;;5.90;4.37;;;;;;;;;;5055596;28;20473;-69
2021/07/31 09:19:52;;;;;;;7.07;4.53;;;;;;;;;;5055396;28;20438;-68
2021/07/31 09:22:20;;;;;;;6.70;4.67;;;;;;;;;;5054578;28;20536;-69
2021/07/31 09:25:08;;;;;;;5.60;4.33;;;;;;;;;;5054626;28;20828;-69
2021/07/31 09:27:35;;;;;;;5.07;4.50;;;;;;;;;;5054398;28;20556;-68
2021/07/31 09:30:03;;;;;;;9.37;4.07;;;;;;;;;;5054737;28;20445;-68
2021/07/31 09:32:40;;;;;;;5.53;4.10;;;;;;;;;;5055122;28;20473;-70
2021/07/31 09:35:25;;;;;;;4.90;4.37;;;;;;;;;;5055266;28;20497;-68
2021/07/31 09:37:55;;;;;;;4.27;3.67;;;;;;;;;;5055497;28;20473;-70
2021/07/31 09:40:28;;;;;;;4.63;4.20;;;;;;;;;;5055630;28;20519;-69
2021/07/31 09:42:55;;;;;;;5.10;3.83;;;;;;;;;;5055032;28;20438;-69
2021/07/31 09:45:32;;;;;;;2.97;2.73;;;;;;;;;;5054740;28;20452;-69
2021/07/31 09:48:00;;;;;;;3.43;2.93;;;;;;;;;;5047104;28;20477;-69
2021/07/31 09:50:37;;;;;;;3.30;3.10;;;;;;;;;;5043023;28;20454;-69
2021/07/31 09:53:09;;;;;;;4.47;3.60;;;;;;;;;;5042944;28;20464;-69
2021/07/31 09:55:38;;;;;;;3.07;2.77;;;;;;;;;;5055093;28;20864;-70
2021/07/31 09:58:08;;;;;;;9.10;3.83;;;;;;;;;;5054389;28;20486;-70
2021/07/31 10:00:35;;;;;;;3.47;2.97;;;;;;;;;;5054698;28;20440;-69
2021/07/31 10:03:02;;;;;;;3.00;2.70;;;;;;;;;;5054370;28;20444;-69
2021/07/31 10:05:30;;;;;;;4.00;2.97;;;;;;;;;;5054534;28;20470;-70
2021/07/31 10:07:57;;;;;;;5.17;3.30;;;;;;;;;;5054194;28;20475;-70
2021/07/31 10:10:26;;;;;;;3.73;3.37;;;;;;;;;;5054309;28;20441;-70
2021/07/31 10:12:53;;;;;;;3.40;2.83;;;;;;;;;;5054268;28;20442;-70
2021/07/31 10:15:21;;;;;;;2.80;2.60;;;;;;;;;;5054173;28;20943;-69
2021/07/31 10:17:48;;;;;;;3.80;3.00;;;;;;;;;;5053206;28;20458;-72
2021/07/31 10:20:24;;;;;;;4.10;3.70;;;;;;;;;;5048425;28;20454;-69
2021/07/31 10:22:51;;;;;;;5.50;3.20;;;;;;;;;;5054211;28;20434;-68
2021/07/31 10:25:19;;;;;;;2.80;2.60;;;;;;;;;;5053875;28;21030;-69
2021/07/31 10:27:48;;;;;;;6.50;2.90;;;;;;;;;;5053796;28;20480;-70
2021/07/31 10:30:29;;;;;;;5.77;2.90;;;;;;;;;;5053567;28;20434;-69
2021/07/31 10:32:56;;;;;;;4.97;2.47;;;;;;;;;;5053745;28;20531;-71
2021/07/31 10:35:34;;;;;;;3.90;2.70;;;;;;;;;;5053393;28;20472;-72
2021/07/31 10:38:02;;;;;;;3.17;2.90;;;;;;;;;;5048192;28;20471;-70
2021/07/31 10:40:53;;;;;;;3.80;3.43;;;;;;;;;;5033942;28;20457;-71
2021/07/31 10:43:23;;;;;;;2.73;2.53;;;;;;;;;;5033682;28;20431;-70
2021/07/31 10:45:50;;;;;;;4.67;3.23;;;;;;;;;;5034315;28;20774;-69
2021/07/31 10:48:24;;;;;;;3.40;3.00;;;;;;;;;;5033864;28;21063;-71
2021/07/31 10:50:52;;;;;;;4.10;3.03;;;;;;;;;;5033776;28;20537;-68
2021/07/31 10:53:21;;;;;;;3.87;3.40;;;;;;;;;;5033338;28;20495;-68
2021/07/31 10:56:00;;;;;;;4.83;3.13;;;;;;;;;;5033712;28;20928;-68
2021/07/31 10:58:31;;;;;;;2.83;2.63;;;;;;;;;;5033074;28;20479;-71
2021/07/31 11:01:17;;;;;;;3.03;2.73;;;;;;;;;;5033499;28;20945;-73
2021/07/31 11:03:44;;;;;;;3.30;3.00;;;;;;;;;;5033455;28;20456;-69
2021/07/31 11:06:12;;;;;;;2.90;2.20;;;;;;;;;;5033962;28;20977;-68
2021/07/31 11:09:06;;;;;;;2.70;2.50;;;;;;;;;;5033557;28;20479;-69
2021/07/31 11:11:34;;;;;;;4.23;3.10;;;;;;;;;;5033455;28;20534;-72
2021/07/31 11:14:03;;;;;;;3.23;2.37;;;;;;;;;;5033153;28;20490;-70
2021/07/31 11:16:30;;;;;;;3.17;2.80;;;;;;;;;;5034128;28;20837;-70
2021/07/31 11:18:58;;;;;;;3.83;2.90;;;;;;;;;;5034070;28;20487;-70
2021/07/31 11:21:26;;;;;;;3.50;2.47;;;;;;;;;;5033138;28;20542;-69
2021/07/31 11:23:54;;;;;;;3.63;2.50;;;;;;;;;;5033548;28;20449;-71
2021/07/31 11:26:40;;;;;;;3.87;3.17;;;;;;;;;;5034073;28;20539;-71
2021/07/31 11:29:16;;;;;;;4.97;3.20;;;;;;;;;;5033019;28;20478;-73
2021/07/31 11:31:45;;;;;;;2.87;2.47;;;;;;;;;;5033325;28;20955;-76
2021/07/31 11:34:12;;;;;;;3.50;2.40;;;;;;;;;;5033611;28;20474;-68
2021/07/31 11:36:40;;;;;;;2.33;2.23;;;;;;;;;;5033078;28;20480;-71
2021/07/31 11:39:08;;;;;;;3.33;2.83;;;;;;;;;;5052453;28;21012;-65
2021/07/31 11:41:39;;;;;;;2.70;2.50;;;;;;;;;;5072876;28;21155;-79
2021/07/31 11:44:07;;;;;;;4.57;3.87;;;;;;;;;;5072815;28;20444;-71
2021/07/31 11:46:37;;;;;;;4.47;2.93;;;;;;;;;;5072329;28;20532;-69
2021/07/31 11:49:05;;;;;;;4.20;3.60;;;;;;;;;;5063979;28;20485;-70
2021/07/31 11:51:33;;;;;;;5.30;3.17;;;;;;;;;;5052094;28;20446;-72
2021/07/31 11:54:08;;;;;;;4.87;3.30;;;;;;;;;;5072002;28;20869;-77
2021/07/31 11:56:35;;;;;;;6.47;2.90;;;;;;;;;;5073133;28;20440;-74
2021/07/31 11:59:03;;;;;;;4.23;3.83;;;;;;;;;;5072699;28;20445;-71
2021/07/31 12:01:30;;;;;;;3.43;3.13;;;;;;;;;;5073157;28;20543;-72
2021/07/31 12:03:58;;;;;;;4.30;3.23;;;;;;;;;;5072852;28;20990;-71
2021/07/31 12:06:32;;;;;;;7.20;3.70;;;;;;;;;;5073251;28;20442;-69
2021/07/31 12:09:01;;;;;;;4.97;4.57;;;;;;;;;;5072462;28;20589;-70
2021/07/31 12:11:32;;;;;;;6.33;5.00;;;;;;;;;;5074852;28;20452;-74
2021/07/31 12:13:59;;;;;;;7.83;5.97;;;;;;;;;;5076619;28;20441;-73
2021/07/31 12:16:27;;;;;;;9.23;6.37;;;;;;;;;;5076622;28;20562;-70
2021/07/31 12:18:55;;;;;;;7.10;5.97;;;;;;;;;;5076423;28;20792;-70
2021/07/31 12:21:27;;;;;;;7.50;6.00;;;;;;;;;;5076422;28;20447;-70
2021/07/31 12:23:54;;;;;;;7.83;5.80;;;;;;;;;;5076804;28;20441;-72
2021/07/31 12:26:28;;;;;;;6.60;6.00;;;;;;;;;;5076561;28;20443;-72
2021/07/31 12:28:57;;;;;;;6.00;5.60;;;;;;;;;;5075965;28;20477;-70
2021/07/31 12:31:24;;;;;;;6.17;5.07;;;;;;;;;;5076181;28;20926;-70
2021/07/31 12:33:52;;;;;;;6.00;5.30;;;;;;;;;;5076467;28;20442;-71
2021/07/31 12:36:19;;;;;;;5.40;4.63;;;;;;;;;;5076364;28;20472;-72
2021/07/31 12:38:48;;;;;;;6.80;6.10;;;;;;;;;;5075834;28;20516;-69
2021/07/31 12:41:15;;;;;;;5.97;5.57;;;;;;;;;;5076141;28;20535;-68
2021/07/31 12:43:43;;;;;;;6.37;5.50;;;;;;;;;;5076294;28;20448;-70
2021/07/31 12:46:10;;;;;;;5.30;4.80;;;;;;;;;;5075926;28;20451;-69
2021/07/31 12:48:37;;;;;;;8.97;5.03;;;;;;;;;;5076224;28;20848;-69
2021/07/31 12:51:07;;;;;;;5.47;4.97;;;;;;;;;;5076392;28;20797;-71
2021/07/31 12:53:34;;;;;;;6.10;5.33;;;;;;;;;;5075987;28;20449;-69
2021/07/31 12:56:02;;;;;;;5.83;5.30;;;;;;;;;;5076047;28;20467;-69
2021/07/31 12:58:30;;;;;;;6.87;5.10;;;;;;;;;;5076239;28;20448;-68
2021/07/31 13:00:57;;;;;;;5.43;4.93;;;;;;;;;;5075883;28;20531;-69
2021/07/31 13:03:24;;;;;;;6.17;5.53;;;;;;;;;;5076082;28;20448;-70
2021/07/31 13:05:52;;;;;;;6.37;5.80;;;;;;;;;;5076590;28;20438;-73
2021/07/31 13:08:19;;;;;;;7.00;6.30;;;;;;;;;;5075473;28;21158;-71
2021/07/31 13:10:47;;;;;;;8.27;7.43;;;;;;;;;;5075804;28;20526;-70
2021/07/31 13:13:15;;;;;;;7.73;7.00;;;;;;;;;;5075468;28;20441;-70
2021/07/31 13:15:43;;;;;;;9.23;8.43;;;;;;;;;;5075701;28;20480;-71
2021/07/31 13:18:12;;;;;;;9.50;8.70;;;;;;;;;;5075533;28;20912;-69
2021/07/31 13:20:40;;;;;;;13.07;11.90;;;;;;;;;;5075417;28;20494;-69
2021/07/31 13:23:07;;;;;;;13.70;12.33;;;;;;;;;;5074656;28;20446;-69
2021/07/31 13:25:36;;;;;;;14.57;13.07;;;;;;;;;;5075539;28;20986;-71
2021/07/31 13:28:03;;;;;;;17.90;12.57;;;;;;;;;;5075450;28;20457;-68
2021/07/31 13:30:33;;;;;;;16.83;15.33;;;;;;;;;;5075337;28;20812;-70
2021/07/31 13:33:01;;;;;;;15.77;14.30;;;;;;;;;;5075864;28;20457;-69
2021/07/31 13:35:28;;;;;;;15.60;13.43;;;;;;;;;;5075510;28;20433;-69
2021/07/31 13:37:55;;;;;;;12.63;11.50;;;;;;;;;;5074853;28;21042;-70
2021/07/31 13:40:23;;;;;;;13.23;12.00;;;;;;;;;;5075258;28;20442;-70
2021/07/31 13:42:52;;;;;;;11.90;10.80;;;;;;;;;;5074794;28;20445;-70
2021/07/31 13:45:20;;;;;;;12.57;11.27;;;;;;;;;;5075055;28;20441;-69
2021/07/31 13:47:49;;;;;;;10.87;9.83;;;;;;;;;;5075113;28;20448;-70
2021/07/31 13:50:16;;;;;;;13.43;12.23;;;;;;;;;;5075110;28;21026;-70
2021/07/31 13:52:44;;;;;;;12.70;9.87;;;;;;;;;;5075713;28;20448;-69
2021/07/31 13:55:12;;;;;;;12.90;11.60;;;;;;;;;;5074795;28;20436;-72
2021/07/31 13:57:41;;;;;;;12.20;11.00;;;;;;;;;;5074877;28;20447;-69
2021/07/31 14:00:09;;;;;;;9.93;8.93;;;;;;;;;;5074602;28;20491;-65
2021/07/31 14:02:36;;;;;;;12.07;10.87;;;;;;;;;;5074960;28;20465;-69
2021/07/31 14:05:05;;;;;;;12.23;10.30;;;;;;;;;;5074698;28;20441;-70
2021/07/31 14:07:32;;;;;;;13.63;11.40;;;;;;;;;;5074760;28;20437;-69
2021/07/31 14:10:00;;;;;;;11.87;10.33;;;;;;;;;;5074343;28;20479;-69
2021/07/31 14:12:27;;;;;;;11.73;10.73;;;;;;;;;;5074510;28;20450;-69
2021/07/31 14:14:54;;;;;;;12.23;10.57;;;;;;;;;;5074839;28;20534;-69
2021/07/31 14:17:21;;;;;;;11.27;10.00;;;;;;;;;;5074322;28;20444;-70
2021/07/31 14:19:48;;;;;;;9.83;8.83;;;;;;;;;;5073989;28;20445;-73
2021/07/31 14:22:17;;;;;;;14.33;11.27;;;;;;;;;;5074332;28;20469;-69
2021/07/31 14:24:44;;;;;;;11.90;10.80;;;;;;;;;;5074355;28;20442;-69
2021/07/31 14:27:11;;;;;;;11.67;10.57;;;;;;;;;;5074835;28;20442;-69
2021/07/31 14:29:39;;;;;;;10.30;9.30;;;;;;;;;;5074619;28;20479;-69
2021/07/31 14:32:07;;;;;;;11.20;9.87;;;;;;;;;;5074168;28;20447;-69
2021/07/31 14:34:34;;;;;;;9.37;8.47;;;;;;;;;;5073699;28;20492;-68
2021/07/31 14:37:01;;;;;;;8.97;8.17;;;;;;;;;;5074056;28;20937;-69
2021/07/31 14:39:31;;;;;;;9.03;8.13;;;;;;;;;;5074751;28;20471;-68
2021/07/31 14:41:58;;;;;;;6.20;5.67;;;;;;;;;;5073964;28;20445;-67
2021/07/31 14:44:25;;;;;;;8.90;8.00;;;;;;;;;;5073957;28;20440;-69
2021/07/31 14:46:53;;;;;;;9.10;7.13;;;;;;;;;;5073911;28;20442;-71